KCAK

Akron-Canton Regional Airport

Akron, Ohio, USA
METAR KCAK 230451Z 24006KT 10SM CLR 09/02 A3004 RMK AO2 SLP178 T00890022 401440000
Observed Flight Rules
Oct-23 @ 04:51 UTC (27 minutes ago) Visual Flight Rules
Wind Visibility Clouds
240° at 6 knots 10 miles
  • Clear skies
Temperatures Readings
Current 9°C / 48°F
Dewpoint 2°C / 36°F
Humidity 62%
Altimeter 30.04" Hg
Pressure 1017.8 hPa
Elevation 377
METAR KCAK 230451Z 24006KT 10SM CLR 09/02 A3004 RMK AO2 SLP178 T00890022 401440000
Observed Flight Rules
Oct-23 @ 04:51 UTC
(27 minutes ago)
VFR
Wind Visibility
240° at 6 knots 10 miles
Clouds
  • Clear skies
Temperature Dewpoint
9°C / 48°F 2°C / 36°F
Humidity Altimeter Pressure
62% 30.04" Hg 1017.8 hPa